createdAt,value
2017-09-24T00:00:47.500Z,36.47
2017-09-24T00:03:15.020Z,36.80
2017-09-24T00:05:42.527Z,38.87
2017-09-24T00:08:10.052Z,37.10
2017-09-24T00:10:37.554Z,37.97
2017-09-24T00:13:05.075Z,34.60
2017-09-24T00:15:32.591Z,40.60
2017-09-24T00:18:00.923Z,43.60
2017-09-24T00:20:29.429Z,39.57
2017-09-24T00:22:57.741Z,38.40
2017-09-24T00:25:25.277Z,37.80
2017-09-24T00:27:53.562Z,36.47
2017-09-24T00:30:21.835Z,33.37
2017-09-24T00:32:50.136Z,35.73
2017-09-24T00:35:17.644Z,36.93
2017-09-24T00:37:45.190Z,38.50
2017-09-24T00:40:12.696Z,34.83
2017-09-24T00:42:40.209Z,39.00
2017-09-24T00:45:07.739Z,38.23
2017-09-24T00:47:35.244Z,32.60
2017-09-24T00:50:02.767Z,30.90
2017-09-24T00:52:30.276Z,29.60
2017-09-24T00:54:58.590Z,33.93
2017-09-24T00:57:26.092Z,32.43
2017-09-24T00:59:53.614Z,33.93
2017-09-24T01:02:21.116Z,36.77
2017-09-24T01:04:48.638Z,37.13
2017-09-24T01:07:16.148Z,37.30
2017-09-24T01:09:44.440Z,42.43
2017-09-24T01:12:11.947Z,38.73
2017-09-24T01:14:39.483Z,38.80
2017-09-24T01:17:06.979Z,32.77
2017-09-24T01:19:34.482Z,32.20
2017-09-24T01:22:02.296Z,34.90
2017-09-24T01:24:29.797Z,35.87
2017-09-24T01:26:57.316Z,34.50
2017-09-24T01:29:26.435Z,38.30
2017-09-24T01:31:54.735Z,34.27
2017-09-24T01:34:22.239Z,35.20
2017-09-24T01:36:49.749Z,35.03
2017-09-24T01:39:17.267Z,34.70
2017-09-24T01:41:44.772Z,33.33
2017-09-24T01:44:12.289Z,33.57
2017-09-24T01:46:40.565Z,35.60
2017-09-24T01:49:09.153Z,37.30
2017-09-24T01:51:37.427Z,32.40
2017-09-24T01:54:05.713Z,32.83
2017-09-24T01:56:34.000Z,33.10
2017-09-24T01:59:01.500Z,34.77
2017-09-24T02:01:29.019Z,36.33
2017-09-24T02:03:56.518Z,33.70
2017-09-24T02:06:24.047Z,35.80
2017-09-24T02:08:51.543Z,35.73
2017-09-24T02:11:19.050Z,37.80
2017-09-24T02:13:46.876Z,37.17
2017-09-24T02:16:14.370Z,37.70
2017-09-24T02:18:41.886Z,36.77
2017-09-24T02:21:09.396Z,37.53
2017-09-24T02:23:36.931Z,35.13
2017-09-24T02:26:05.194Z,38.10
2017-09-24T02:28:32.696Z,36.17
2017-09-24T02:31:00.216Z,36.90
2017-09-24T02:33:28.483Z,37.50
2017-09-24T02:35:56.766Z,37.03
2017-09-24T02:38:25.031Z,30.30
2017-09-24T02:40:52.558Z,33.63
2017-09-24T02:43:20.063Z,34.07
2017-09-24T02:45:48.336Z,36.80
2017-09-24T02:48:16.624Z,37.30
2017-09-24T02:50:44.887Z,36.57
2017-09-24T02:53:13.184Z,39.00
2017-09-24T02:55:40.688Z,38.37
2017-09-24T02:58:08.227Z,37.30
2017-09-24T03:00:35.731Z,36.67
2017-09-24T03:03:03.231Z,34.20
2017-09-24T03:05:30.746Z,34.23
2017-09-24T03:07:58.264Z,30.13
2017-09-24T03:10:25.782Z,32.67
2017-09-24T03:12:54.051Z,32.17
2017-09-24T03:15:22.351Z,30.40
2017-09-24T03:17:49.854Z,32.00
2017-09-24T03:20:17.355Z,36.37
2017-09-24T03:22:44.894Z,34.17
2017-09-24T03:25:13.159Z,35.07
2017-09-24T03:27:40.712Z,35.70
2017-09-24T03:30:08.275Z,37.60
2017-09-24T03:32:35.811Z,34.53
2017-09-24T03:35:03.350Z,37.00
2017-09-24T03:37:30.861Z,34.43
2017-09-24T03:39:59.151Z,37.50
2017-09-24T03:42:27.419Z,38.90
2017-09-24T03:44:55.703Z,34.53
2017-09-24T03:47:23.981Z,40.60
2017-09-24T03:49:52.267Z,39.47
2017-09-24T03:52:19.766Z,40.77
2017-09-24T03:54:47.303Z,41.20
2017-09-24T03:57:14.807Z,40.97
2017-09-24T03:59:42.335Z,41.43
2017-09-24T04:02:10.608Z,43.07
2017-09-24T04:04:38.147Z,43.17
2017-09-24T04:07:05.655Z,41.30
2017-09-24T04:09:33.164Z,41.07
2017-09-24T04:12:00.692Z,42.33
2017-09-24T04:14:29.309Z,42.97
2017-09-24T04:16:56.827Z,42.97
2017-09-24T04:19:25.107Z,44.80
2017-09-24T04:21:53.402Z,45.07
2017-09-24T04:24:20.904Z,46.40
2017-09-24T04:26:48.423Z,47.60
2017-09-24T04:29:15.944Z,44.37
2017-09-24T04:31:43.453Z,47.33
2017-09-24T04:34:10.972Z,45.37
2017-09-24T04:36:39.235Z,47.37
2017-09-24T04:39:06.772Z,48.70
2017-09-24T04:41:34.285Z,48.37
2017-09-24T04:44:02.168Z,46.60
2017-09-24T04:46:29.695Z,47.63
2017-09-24T04:48:57.967Z,44.63
2017-09-24T04:51:26.251Z,47.80
2017-09-24T04:53:54.519Z,48.47
2017-09-24T04:56:22.817Z,46.80
2017-09-24T04:58:50.342Z,46.13
2017-09-24T05:01:17.885Z,53.20
2017-09-24T05:03:46.356Z,53.13
2017-09-24T05:06:13.981Z,45.80
2017-09-24T05:08:42.758Z,44.37
2017-09-24T05:11:10.291Z,44.00
2017-09-24T05:13:38.567Z,45.73
2017-09-24T05:16:06.071Z,46.30
2017-09-24T05:18:33.886Z,50.87
2017-09-24T05:21:01.391Z,44.73
2017-09-24T05:23:28.911Z,48.47
2017-09-24T05:25:57.180Z,49.47
2017-09-24T05:28:24.715Z,51.40
2017-09-24T05:30:52.228Z,52.00
2017-09-24T05:33:19.736Z,51.70
2017-09-24T05:35:47.267Z,55.67
2017-09-24T05:38:14.779Z,55.00
2017-09-24T05:40:43.072Z,51.03
2017-09-24T05:43:11.340Z,52.03
2017-09-24T05:45:39.644Z,51.23
2017-09-24T05:48:07.151Z,54.37
2017-09-24T05:50:34.656Z,50.70
2017-09-24T05:53:02.183Z,51.67
2017-09-24T05:55:30.452Z,50.30
2017-09-24T05:57:58.786Z,50.63
2017-09-24T06:00:26.279Z,50.27
2017-09-24T06:02:53.826Z,50.87
2017-09-24T06:05:21.331Z,48.70
2017-09-24T06:07:48.827Z,45.37
2017-09-24T06:10:16.351Z,47.20
2017-09-24T06:12:43.863Z,48.00
2017-09-24T06:15:11.398Z,45.07
2017-09-24T06:17:39.676Z,43.97
2017-09-24T06:20:07.184Z,43.77
2017-09-24T06:22:35.475Z,45.50
2017-09-24T06:25:02.995Z,49.20
2017-09-24T06:27:30.552Z,46.93
2017-09-24T06:29:58.064Z,47.27
2017-09-24T06:32:25.576Z,48.13
2017-09-24T06:34:53.107Z,44.97
2017-09-24T06:37:20.685Z,49.70
2017-09-24T06:39:48.222Z,49.43
2017-09-24T06:42:15.723Z,47.37
2017-09-24T06:44:44.003Z,48.43
2017-09-24T06:47:12.296Z,46.77
2017-09-24T06:49:39.807Z,44.50
2017-09-24T06:52:07.347Z,49.50
2017-09-24T06:54:34.859Z,49.97
2017-09-24T06:57:03.130Z,45.50
2017-09-24T06:59:31.415Z,41.67
2017-09-24T07:01:59.682Z,41.23
2017-09-24T07:04:27.989Z,38.40
2017-09-24T07:06:55.505Z,38.53
2017-09-24T07:09:23.020Z,39.17
2017-09-24T07:11:50.543Z,43.30
2017-09-24T07:14:18.050Z,40.27
2017-09-24T07:16:45.592Z,43.70
2017-09-24T07:19:13.098Z,45.40
2017-09-24T07:21:41.371Z,39.50
2017-09-24T07:24:08.975Z,41.50
2017-09-24T07:26:36.841Z,42.70
2017-09-24T07:29:04.381Z,36.13
2017-09-24T07:31:31.891Z,32.20
2017-09-24T07:33:59.399Z,34.33
2017-09-24T07:36:27.281Z,27.63
2017-09-24T07:38:54.783Z,31.50
2017-09-24T07:41:22.323Z,28.70
2017-09-24T07:43:49.827Z,27.87
2017-09-24T07:46:18.095Z,28.03
2017-09-24T07:48:46.387Z,26.37
2017-09-24T07:51:14.669Z,29.20
2017-09-24T07:53:42.195Z,28.63
2017-09-24T07:56:09.699Z,24.70
2017-09-24T07:58:37.203Z,25.23
2017-09-24T08:01:04.727Z,26.67
2017-09-24T08:03:32.259Z,27.80
2017-09-24T08:05:59.813Z,27.17
2017-09-24T08:08:27.327Z,24.17
2017-09-24T08:10:54.835Z,25.83
2017-09-24T08:13:22.355Z,24.87
2017-09-24T08:15:49.859Z,22.70
2017-09-24T08:18:17.398Z,23.20
2017-09-24T08:20:45.674Z,23.77
2017-09-24T08:23:13.947Z,21.87
2017-09-24T08:25:42.239Z,22.60
2017-09-24T08:28:09.752Z,19.57
2017-09-24T08:30:37.291Z,20.80
2017-09-24T08:33:04.795Z,20.20
2017-09-24T08:35:33.067Z,18.80
2017-09-24T08:38:01.588Z,18.30
2017-09-24T08:40:30.421Z,19.43
2017-09-24T08:42:58.714Z,20.00
2017-09-24T08:45:27.040Z,19.60
2017-09-24T08:47:54.542Z,17.77
2017-09-24T08:50:22.823Z,15.90
2017-09-24T08:52:51.125Z,18.23
2017-09-24T08:55:18.652Z,18.77
2017-09-24T08:57:46.158Z,19.10
2017-09-24T09:00:13.686Z,17.30
2017-09-24T09:02:41.959Z,15.77
2017-09-24T09:05:10.236Z,15.03
2017-09-24T09:07:38.523Z,16.30
2017-09-24T09:10:06.043Z,15.40
2017-09-24T09:12:33.593Z,14.83
2017-09-24T09:15:01.136Z,15.73
2017-09-24T09:17:28.685Z,17.17
2017-09-24T09:19:56.212Z,16.07
2017-09-24T09:22:24.511Z,13.87
2017-09-24T09:24:52.023Z,16.10
2017-09-24T09:27:19.540Z,14.43
2017-09-24T09:29:47.062Z,14.60
2017-09-24T09:32:15.335Z,13.90
2017-09-24T09:34:55.436Z,14.60
2017-09-24T09:37:22.945Z,13.50
2017-09-24T09:39:51.219Z,14.40
2017-09-24T09:42:19.507Z,14.50
2017-09-24T09:44:50.888Z,13.53
2017-09-24T09:47:26.195Z,12.07
2017-09-24T09:49:53.711Z,14.40
2017-09-24T09:52:21.250Z,13.37
2017-09-24T09:54:48.779Z,11.20
2017-09-24T09:57:16.287Z,12.30
2017-09-24T09:59:43.805Z,12.13
2017-09-24T10:02:11.334Z,12.60
2017-09-24T10:04:39.619Z,12.40
2017-09-24T10:07:19.750Z,13.53
2017-09-24T10:09:59.875Z,11.80
2017-09-24T10:12:27.391Z,11.77
2017-09-24T10:14:54.904Z,12.40
2017-09-24T10:17:22.411Z,12.27
2017-09-24T10:19:49.940Z,13.50
2017-09-24T10:22:18.212Z,17.93
2017-09-24T10:24:46.511Z,15.70
2017-09-24T10:27:14.019Z,13.73
2017-09-24T10:29:41.544Z,14.97
2017-09-24T10:32:09.072Z,15.60
2017-09-24T10:34:37.335Z,12.30
2017-09-24T10:37:04.864Z,13.27
2017-09-24T10:39:32.370Z,13.70
2017-09-24T10:42:00.648Z,13.23
2017-09-24T10:44:28.951Z,12.90
2017-09-24T10:46:56.463Z,15.03
2017-09-24T10:49:23.994Z,15.10
2017-09-24T10:51:51.524Z,15.50
2017-09-24T10:54:19.039Z,14.93
2017-09-24T10:56:46.567Z,14.20
2017-09-24T10:59:14.092Z,13.60
2017-09-24T11:01:41.600Z,16.60
2017-09-24T11:04:09.122Z,15.60
2017-09-24T11:06:36.647Z,16.73
2017-09-24T11:09:04.927Z,13.63
2017-09-24T11:11:33.217Z,13.67
2017-09-24T11:14:00.727Z,14.20
2017-09-24T11:16:28.261Z,13.73
2017-09-24T11:18:55.762Z,14.60
2017-09-24T11:21:23.274Z,16.40
2017-09-24T11:23:50.794Z,14.93
2017-09-24T11:26:19.082Z,16.10
2017-09-24T11:28:46.668Z,14.77
2017-09-24T11:31:14.445Z,16.37
2017-09-24T11:33:42.021Z,15.67
2017-09-24T11:36:09.611Z,15.10
2017-09-24T11:38:37.202Z,15.87
2017-09-24T11:41:04.753Z,14.73
2017-09-24T11:43:32.293Z,14.57
2017-09-24T11:45:59.885Z,14.93
2017-09-24T11:48:27.423Z,11.93
2017-09-24T11:50:54.968Z,12.63
2017-09-24T11:53:23.296Z,12.07
2017-09-24T11:55:51.583Z,10.53
2017-09-24T11:58:19.113Z,11.50
2017-09-24T12:00:46.756Z,11.40
2017-09-24T12:03:14.273Z,11.30
2017-09-24T12:05:41.906Z,11.23
2017-09-24T12:08:09.454Z,12.00
2017-09-24T12:10:37.304Z,11.23
2017-09-24T12:13:04.959Z,10.20
2017-09-24T12:15:32.523Z,11.73
2017-09-24T12:18:00.421Z,11.80
2017-09-24T12:20:28.995Z,12.07
2017-09-24T12:22:56.616Z,12.97
2017-09-24T12:25:24.160Z,11.60
2017-09-24T12:27:51.681Z,10.80
2017-09-24T12:30:20.231Z,12.83
2017-09-24T12:32:47.797Z,12.67
2017-09-24T12:35:15.327Z,12.37
2017-09-24T12:37:43.599Z,11.10
2017-09-24T12:40:11.904Z,12.70
2017-09-24T12:42:39.410Z,12.57
2017-09-24T12:45:06.923Z,13.20
2017-09-24T12:47:34.447Z,13.87
2017-09-24T12:50:02.724Z,12.80
2017-09-24T12:52:31.028Z,13.50
2017-09-24T12:54:58.544Z,13.43
2017-09-24T12:57:26.055Z,11.53
2017-09-24T12:59:53.587Z,12.60
2017-09-24T13:02:21.917Z,13.10
2017-09-24T13:04:49.455Z,13.03
2017-09-24T13:07:17.821Z,11.23
2017-09-24T13:09:46.178Z,12.13
2017-09-24T13:12:14.467Z,11.70
2017-09-24T13:14:41.979Z,12.20
2017-09-24T13:17:09.524Z,12.43
2017-09-24T13:19:37.031Z,11.60
2017-09-24T13:22:05.308Z,12.97
2017-09-24T13:24:33.598Z,13.00
2017-09-24T13:27:01.111Z,12.90
2017-09-24T13:29:28.659Z,9.20
2017-09-24T13:31:56.159Z,7.90
2017-09-24T13:34:24.428Z,6.63
2017-09-24T13:36:52.737Z,6.40
2017-09-24T13:39:20.512Z,6.53
2017-09-24T13:41:48.763Z,7.37
2017-09-24T13:44:16.283Z,6.83
2017-09-24T13:46:45.096Z,6.33
2017-09-24T13:49:13.374Z,6.70
2017-09-24T13:51:41.664Z,6.27
2017-09-24T13:54:09.186Z,8.77
2017-09-24T13:56:36.695Z,8.70
2017-09-24T13:59:04.196Z,7.70
2017-09-24T14:01:31.717Z,6.33
2017-09-24T14:03:59.215Z,7.40
2017-09-24T14:06:26.744Z,7.97
2017-09-24T14:08:54.247Z,6.80
2017-09-24T14:11:22.511Z,7.50
2017-09-24T14:13:50.032Z,8.70
2017-09-24T14:16:17.833Z,8.80
2017-09-24T14:18:45.367Z,9.33
2017-09-24T14:21:12.872Z,9.70
2017-09-24T14:23:41.143Z,9.83
2017-09-24T14:26:09.431Z,9.03
2017-09-24T14:28:36.939Z,8.40
2017-09-24T14:31:04.465Z,8.63
2017-09-24T14:33:31.971Z,7.43
2017-09-24T14:35:59.470Z,8.63
2017-09-24T14:38:26.995Z,7.57
2017-09-24T14:40:54.496Z,8.20
2017-09-24T14:43:22.023Z,7.50
2017-09-24T14:45:50.293Z,8.07
2017-09-24T14:48:18.571Z,8.33
2017-09-24T14:50:46.862Z,9.00
2017-09-24T14:53:15.139Z,13.10
2017-09-24T14:55:43.427Z,10.17
2017-09-24T14:58:10.927Z,8.60
2017-09-24T15:00:38.448Z,8.63
2017-09-24T15:03:05.988Z,9.80
2017-09-24T15:05:34.262Z,8.00
2017-09-24T15:08:01.794Z,7.60
2017-09-24T15:10:29.337Z,8.63
2017-09-24T15:12:56.903Z,9.20
2017-09-24T15:15:24.743Z,7.93
2017-09-24T15:17:52.252Z,8.80
2017-09-24T15:20:20.538Z,8.10
2017-09-24T15:22:48.811Z,8.37
2017-09-24T15:25:17.099Z,7.90
2017-09-24T15:27:44.603Z,8.17
2017-09-24T15:30:12.127Z,8.50
2017-09-24T15:32:39.631Z,8.37
2017-09-24T15:35:07.487Z,9.07
2017-09-24T15:37:34.999Z,8.30
2017-09-24T15:40:02.502Z,8.80
2017-09-24T15:42:30.026Z,8.77
2017-09-24T15:44:57.532Z,8.83
2017-09-24T15:47:25.039Z,8.30
2017-09-24T15:49:52.563Z,7.73
2017-09-24T15:52:20.062Z,8.00
2017-09-24T15:54:47.616Z,8.40
2017-09-24T15:57:15.868Z,8.77
2017-09-24T15:59:44.143Z,9.10
2017-09-24T16:02:12.423Z,8.23
2017-09-24T16:04:40.701Z,8.50
2017-09-24T16:07:08.990Z,7.73
2017-09-24T16:09:36.500Z,9.97
2017-09-24T16:12:04.040Z,11.73
2017-09-24T16:14:31.535Z,8.77
2017-09-24T16:16:59.038Z,9.20
2017-09-24T16:19:26.555Z,9.30
2017-09-24T16:21:54.827Z,7.90
2017-09-24T16:24:22.355Z,9.80
2017-09-24T16:26:49.850Z,8.17
2017-09-24T16:29:18.120Z,8.30
2017-09-24T16:31:46.415Z,8.50
2017-09-24T16:34:14.700Z,10.27
2017-09-24T16:36:42.228Z,9.10
2017-09-24T16:39:09.779Z,9.27
2017-09-24T16:41:37.372Z,10.40
2017-09-24T16:44:05.005Z,10.00
2017-09-24T16:46:33.559Z,9.67
2017-09-24T16:49:01.167Z,9.27
2017-09-24T16:51:28.958Z,9.57
2017-09-24T16:53:56.515Z,10.30
2017-09-24T16:56:24.079Z,8.70
2017-09-24T16:58:51.766Z,9.17
2017-09-24T17:01:20.237Z,8.10
2017-09-24T17:03:47.758Z,8.23
2017-09-24T17:06:15.315Z,7.73
2017-09-24T17:08:43.583Z,8.30
2017-09-24T17:11:12.444Z,7.80
2017-09-24T17:13:39.939Z,8.27
2017-09-24T17:16:08.202Z,7.93
2017-09-24T17:18:36.491Z,14.93
2017-09-24T17:21:04.767Z,19.40
2017-09-24T17:23:33.068Z,10.33
2017-09-24T17:26:00.574Z,16.20
2017-09-24T17:28:28.099Z,12.60
2017-09-24T17:30:55.611Z,32.00
2017-09-24T17:33:23.891Z,22.90
2017-09-24T17:35:52.187Z,19.43
2017-09-24T17:38:19.699Z,16.10
2017-09-24T17:40:47.226Z,32.13
2017-09-24T17:43:14.731Z,36.80
2017-09-24T17:45:43.024Z,20.90
2017-09-24T17:48:10.535Z,18.53
2017-09-24T17:50:38.062Z,23.40
2017-09-24T17:53:05.591Z,18.30
2017-09-24T17:55:33.873Z,12.77
2017-09-24T17:58:02.170Z,11.27
2017-09-24T18:00:29.680Z,15.47
2017-09-24T18:02:57.207Z,26.27
2017-09-24T18:05:24.715Z,22.50
2017-09-24T18:07:53.023Z,22.33
2017-09-24T18:10:20.625Z,18.60
2017-09-24T18:12:48.228Z,23.23
2017-09-24T18:15:15.985Z,14.47
2017-09-24T18:17:43.764Z,11.13
2017-09-24T18:20:12.785Z,9.50
2017-09-24T18:22:40.298Z,13.77
2017-09-24T18:25:09.429Z,27.13
2017-09-24T18:27:36.936Z,13.07
2017-09-24T18:30:04.446Z,9.40
2017-09-24T18:32:31.975Z,9.20
2017-09-24T18:34:59.483Z,10.60
2017-09-24T18:37:27.010Z,18.70
2017-09-24T18:39:54.515Z,16.43
2017-09-24T18:42:22.056Z,14.90
2017-09-24T18:44:49.558Z,11.37
2017-09-24T18:47:17.831Z,12.00
2017-09-24T18:49:46.119Z,12.20
2017-09-24T18:52:13.627Z,13.70
2017-09-24T18:54:41.147Z,15.70
2017-09-24T18:57:08.651Z,23.80
2017-09-24T18:59:36.183Z,20.00
2017-09-24T19:02:03.690Z,14.90
2017-09-24T19:04:31.964Z,12.70
2017-09-24T19:07:00.257Z,12.17
2017-09-24T19:09:28.529Z,11.10
2017-09-24T19:11:56.816Z,12.53
2017-09-24T19:14:24.324Z,12.20
2017-09-24T19:16:52.203Z,12.63
2017-09-24T19:19:19.702Z,12.30
2017-09-24T19:21:47.210Z,12.70
2017-09-24T19:24:14.736Z,16.33
2017-09-24T19:26:42.248Z,25.27
2017-09-24T19:29:09.779Z,16.30
2017-09-24T19:31:37.287Z,19.20
2017-09-24T19:34:04.815Z,36.80
2017-09-24T19:36:32.334Z,30.40
2017-09-24T19:38:59.860Z,28.00
2017-09-24T19:41:27.372Z,20.23
2017-09-24T19:43:54.898Z,17.07
2017-09-24T19:46:22.399Z,12.83
2017-09-24T19:48:49.923Z,12.17
2017-09-24T19:51:17.427Z,11.60
2017-09-24T19:53:44.953Z,13.43
2017-09-24T19:56:12.463Z,13.10
2017-09-24T19:58:40.051Z,13.70
2017-09-24T20:01:08.872Z,13.50
2017-09-24T20:03:36.422Z,13.50
2017-09-24T20:06:04.043Z,13.60
2017-09-24T20:08:34.331Z,13.77
2017-09-24T20:11:01.888Z,14.73
2017-09-24T20:13:29.394Z,14.90
2017-09-24T20:15:56.920Z,16.23
2017-09-24T20:18:25.200Z,15.70
2017-09-24T20:20:53.492Z,15.10
2017-09-24T20:23:21.003Z,15.50
2017-09-24T20:25:48.531Z,16.77
2017-09-24T20:28:16.034Z,15.90
2017-09-24T20:30:44.409Z,15.50
2017-09-24T20:33:11.915Z,15.50
2017-09-24T20:35:39.512Z,15.63
2017-09-24T20:38:07.018Z,15.97
2017-09-24T20:40:34.619Z,15.37
2017-09-24T20:43:02.133Z,15.90
2017-09-24T20:45:29.660Z,16.17
2017-09-24T20:47:57.177Z,18.23
2017-09-24T20:50:24.791Z,18.00
2017-09-24T20:52:53.067Z,16.70
2017-09-24T20:55:21.355Z,18.10
2017-09-24T20:57:49.628Z,20.17
2017-09-24T21:00:18.187Z,18.20
2017-09-24T21:02:45.691Z,18.83
2017-09-24T21:05:13.239Z,17.40
2017-09-24T21:07:40.734Z,16.47
2017-09-24T21:10:08.232Z,14.47
2017-09-24T21:12:36.516Z,15.60
2017-09-24T21:15:04.783Z,14.90
2017-09-24T21:17:33.064Z,15.80
2017-09-24T21:20:01.339Z,14.73
2017-09-24T21:22:29.626Z,16.17
2017-09-24T21:24:57.895Z,15.60
2017-09-24T21:27:26.180Z,17.20
2017-09-24T21:29:54.448Z,18.10
2017-09-24T21:32:22.731Z,19.20
2017-09-24T21:34:50.997Z,20.43
2017-09-24T21:37:19.283Z,19.90
2017-09-24T21:39:47.551Z,20.03
2017-09-24T21:42:15.835Z,19.80
2017-09-24T21:44:44.114Z,18.27
2017-09-24T21:47:12.404Z,20.33
2017-09-24T21:49:39.948Z,18.87
2017-09-24T21:52:08.210Z,18.27
2017-09-24T21:54:36.567Z,20.90
2017-09-24T21:57:04.115Z,19.13
2017-09-24T21:59:31.627Z,19.93
2017-09-24T22:01:59.153Z,19.50
2017-09-24T22:04:26.660Z,17.40
2017-09-24T22:06:54.195Z,18.13
2017-09-24T22:09:22.464Z,15.80
2017-09-24T22:11:50.728Z,16.77
2017-09-24T22:14:18.247Z,17.40
2017-09-24T22:16:45.751Z,18.90
2017-09-24T22:19:14.031Z,17.30
2017-09-24T22:21:42.303Z,17.73
2017-09-24T22:24:10.587Z,17.80
2017-09-24T22:26:38.859Z,18.20
2017-09-24T22:29:07.148Z,18.83
2017-09-24T22:31:34.654Z,17.30
2017-09-24T22:34:02.172Z,17.37
2017-09-24T22:36:29.679Z,17.60
2017-09-24T22:38:57.199Z,17.03
2017-09-24T22:41:24.703Z,19.07
2017-09-24T22:43:52.999Z,17.67
2017-09-24T22:46:21.267Z,17.80
2017-09-24T22:48:49.562Z,17.90
2017-09-24T22:51:17.832Z,18.10
2017-09-24T22:53:46.127Z,18.63
2017-09-24T22:56:13.627Z,18.10
2017-09-24T22:58:41.144Z,18.10
2017-09-24T23:01:08.647Z,20.67
2017-09-24T23:03:36.167Z,21.13
2017-09-24T23:06:03.673Z,20.80
2017-09-24T23:08:31.215Z,19.70
2017-09-24T23:10:58.715Z,19.97
2017-09-24T23:13:26.987Z,21.00
2017-09-24T23:15:55.270Z,22.57
2017-09-24T23:18:23.545Z,21.00
2017-09-24T23:20:51.092Z,20.13
2017-09-24T23:23:19.479Z,19.60
2017-09-24T23:25:47.795Z,21.57
2017-09-24T23:28:15.301Z,23.63
2017-09-24T23:30:42.821Z,23.00
2017-09-24T23:33:10.324Z,22.70
2017-09-24T23:35:38.607Z,22.80
2017-09-24T23:38:06.875Z,22.60
2017-09-24T23:40:35.161Z,21.47
2017-09-24T23:43:03.427Z,21.30
2017-09-24T23:45:31.711Z,20.17
2017-09-24T23:47:59.975Z,21.80
2017-09-24T23:50:28.268Z,22.00
2017-09-24T23:52:55.776Z,22.40
2017-09-24T23:55:23.297Z,21.83
2017-09-24T23:57:50.803Z,20.30
